Time;durP1;ratioP1;P1;durP2;ratioP2;P2;SDS_P1;SDS_P2;PMS_P1;PMS_P2;Temp;Humidity;BMP_temperature;BMP_pressure;BME280_temperature;BME280_humidity;BME280_pressure;Samples;Min_cycle;Max_cycle;Signal;HPM_P1;HPM_P2
2022/08/03 00:00:25;;;;;;;19.65;18.33;;;16.40;99.90;;;;;;5023693;28;20049;-73
2022/08/03 00:02:51;;;;;;;21.27;19.60;;;16.40;99.90;;;;;;5006832;28;20045;-75
2022/08/03 00:05:18;;;;;;;20.50;18.92;;;16.40;99.90;;;;;;5019442;28;20048;-75
2022/08/03 00:07:45;;;;;;;20.10;18.50;;;16.50;99.90;;;;;;5027349;28;20697;-75
2022/08/03 00:10:15;;;;;;;19.42;17.92;;;16.20;99.90;;;;;;4995804;28;20045;-73
2022/08/03 00:12:42;;;;;;;19.40;17.98;;;16.20;99.90;;;;;;5004018;28;20128;-73
2022/08/03 00:15:10;;;;;;;20.88;19.27;;;16.20;99.90;;;;;;5009589;28;20420;-74
2022/08/03 00:17:43;;;;;;;19.35;17.83;;;16.20;99.90;;;;;;5007383;28;20532;-73
2022/08/03 00:20:20;;;;;;;21.15;19.45;;;16.20;99.90;;;;;;5023426;28;20059;-73
2022/08/03 00:22:48;;;;;;;19.33;18.02;;;16.20;99.90;;;;;;5025208;28;20511;-74
2022/08/03 00:25:16;;;;;;;20.40;18.42;;;16.10;99.90;;;;;;5007292;28;20118;-73
2022/08/03 00:27:43;;;;;;;18.70;17.40;;;16.00;99.90;;;;;;4992074;28;20040;-73
2022/08/03 00:30:10;;;;;;;20.83;19.02;;;16.00;99.90;;;;;;4996156;28;20119;-72
2022/08/03 00:32:37;;;;;;;20.55;19.00;;;16.00;99.90;;;;;;5030554;28;20563;-73
2022/08/03 00:35:10;;;;;;;20.02;18.45;;;15.90;99.90;;;;;;5007934;28;20108;-72
2022/08/03 00:37:58;;;;;;;19.95;18.50;;;15.90;99.90;;;;;;5009161;28;20048;-72
2022/08/03 00:40:25;;;;;;;17.75;16.48;;;16.00;99.90;;;;;;5013468;28;20045;-72
2022/08/03 00:42:58;;;;;;;19.48;17.75;;;15.90;99.90;;;;;;5004899;28;20044;-73
2022/08/03 00:45:31;;;;;;;20.08;18.45;;;15.80;99.90;;;;;;5006828;28;20810;-73
2022/08/03 00:47:58;;;;;;;18.98;17.58;;;15.80;99.90;;;;;;5023671;28;20071;-73
2022/08/03 00:50:27;;;;;;;20.55;19.05;;;15.80;99.90;;;;;;4991423;28;20105;-72
2022/08/03 00:52:56;;;;;;;19.30;17.95;;;15.80;99.90;;;;;;5004562;28;20094;-72
2022/08/03 00:55:24;;;;;;;19.77;18.23;;;15.70;99.90;;;;;;5005030;28;20505;-73
2022/08/03 00:57:53;;;;;;;19.40;17.92;;;15.60;99.90;;;;;;5011494;28;20069;-72
2022/08/03 01:00:22;;;;;;;20.30;18.70;;;15.80;99.90;;;;;;5019021;28;20057;-73
2022/08/03 01:02:50;;;;;;;19.67;18.25;;;15.90;99.90;;;;;;5003938;28;20504;-72
2022/08/03 01:05:19;;;;;;;18.63;17.10;;;15.80;99.90;;;;;;4994664;28;20150;-70
2022/08/03 01:08:10;;;;;;;18.02;16.42;;;15.80;99.90;;;;;;4994011;28;20079;-73
2022/08/03 01:10:56;;;;;;;17.08;15.68;;;15.60;99.90;;;;;;5002116;28;21072;-75
2022/08/03 01:13:30;;;;;;;17.50;16.17;;;15.70;99.90;;;;;;5003914;28;20044;-75
2022/08/03 01:16:32;;;;;;;19.08;17.35;;;15.70;99.90;;;;;;5006387;28;20040;-74
2022/08/03 01:19:17;;;;;;;18.85;17.55;;;15.60;99.90;;;;;;5015772;28;20608;-74
2022/08/03 01:21:53;;;;;;;17.17;15.98;;;15.50;99.90;;;;;;5001195;28;20049;-74
2022/08/03 01:25:05;;;;;;;16.80;15.57;;;15.50;99.90;;;;;;5019542;28;20052;-73
2022/08/03 01:28:05;;;;;;;17.42;15.93;;;15.40;99.90;;;;;;4990657;28;20056;-73
2022/08/03 01:30:35;;;;;;;18.65;17.05;;;15.40;99.90;;;;;;5017269;28;20059;-73
2022/08/03 01:33:08;;;;;;;16.88;15.48;;;15.50;99.90;;;;;;5002911;28;20048;-73
2022/08/03 01:35:49;;;;;;;17.92;16.50;;;15.50;99.90;;;;;;4989951;28;20060;-73
2022/08/03 01:38:32;;;;;;;19.20;17.42;;;15.50;99.90;;;;;;5028133;28;20043;-73
2022/08/03 01:41:10;;;;;;;19.13;17.35;;;15.60;99.90;;;;;;5035760;22;20192;-71
2022/08/03 01:43:39;;;;;;;17.55;16.25;;;15.50;99.90;;;;;;5034489;28;20056;-71
2022/08/03 01:46:27;;;;;;;16.83;15.35;;;15.50;99.90;;;;;;5013186;28;20146;-71
2022/08/03 01:48:56;;;;;;;16.80;15.55;;;15.50;99.90;;;;;;5028466;28;20045;-71
2022/08/03 01:51:24;;;;;;;17.52;15.85;;;15.40;99.90;;;;;;5008618;28;20067;-72
2022/08/03 01:54:12;;;;;;;16.75;15.55;;;15.40;99.90;;;;;;5009680;28;20049;-71
2022/08/03 01:56:41;;;;;;;18.40;16.85;;;15.30;99.90;;;;;;5023582;28;20123;-71
2022/08/03 01:59:10;;;;;;;16.65;15.35;;;15.40;99.90;;;;;;5015898;28;20044;-71
2022/08/03 02:01:38;;;;;;;18.67;17.08;;;15.40;99.90;;;;;;5027326;28;20958;-72
2022/08/03 02:04:27;;;;;;;18.30;16.95;;;15.30;99.90;;;;;;5023287;28;20064;-71
2022/08/03 02:06:54;;;;;;;17.05;15.55;;;15.20;99.90;;;;;;5020743;28;20044;-70
2022/08/03 02:09:29;;;;;;;17.17;15.63;;;15.20;99.90;;;;;;5023673;28;20051;-71
2022/08/03 02:11:57;;;;;;;19.65;17.63;;;15.20;99.90;;;;;;5028376;28;20045;-71
2022/08/03 02:14:26;;;;;;;17.58;16.05;;;15.20;99.90;;;;;;5010235;28;20136;-71
2022/08/03 02:16:56;;;;;;;17.38;15.77;;;15.10;99.90;;;;;;5023966;28;20052;-71
2022/08/03 02:19:25;;;;;;;18.40;16.75;;;15.10;99.90;;;;;;4997773;28;20063;-70
2022/08/03 02:21:52;;;;;;;19.17;17.30;;;15.10;99.90;;;;;;5024848;28;20048;-71
2022/08/03 02:24:28;;;;;;;18.90;17.45;;;15.10;99.90;;;;;;5020089;28;20068;-70
2022/08/03 02:26:55;;;;;;;19.05;17.58;;;15.00;99.90;;;;;;5025074;28;20060;-71
2022/08/03 02:29:25;;;;;;;19.50;17.92;;;15.20;99.90;;;;;;5008206;28;20300;-71
2022/08/03 02:32:12;;;;;;;18.95;17.25;;;15.00;99.90;;;;;;5009908;28;20095;-70
2022/08/03 02:34:43;;;;;;;19.77;17.73;;;15.00;99.90;;;;;;5008787;28;21050;-70
2022/08/03 02:37:12;;;;;;;18.65;17.20;;;15.00;99.90;;;;;;5023295;28;20130;-70
2022/08/03 02:39:41;;;;;;;18.77;17.20;;;15.00;99.90;;;;;;5012177;28;20056;-70
2022/08/03 02:42:10;;;;;;;18.65;17.08;;;14.90;99.90;;;;;;5019933;28;20064;-70
2022/08/03 02:44:42;;;;;;;21.30;19.75;;;15.10;99.90;;;;;;5027305;28;20063;-70
2022/08/03 02:47:11;;;;;;;19.80;18.30;;;14.90;99.90;;;;;;5019825;28;20519;-70
2022/08/03 02:49:39;;;;;;;18.48;17.08;;;14.80;99.90;;;;;;5020454;28;20190;-71
2022/08/03 02:52:19;;;;;;;19.90;18.20;;;15.00;99.90;;;;;;5018378;28;20044;-69
2022/08/03 02:54:49;;;;;;;18.67;17.27;;;15.10;99.90;;;;;;5014153;28;20735;-70
2022/08/03 02:57:18;;;;;;;18.70;17.10;;;14.90;99.90;;;;;;5018458;28;20045;-70
2022/08/03 02:59:46;;;;;;;17.98;16.55;;;14.80;99.90;;;;;;4996237;28;20531;-69
2022/08/03 03:02:15;;;;;;;18.10;16.45;;;14.80;99.90;;;;;;5024507;28;20403;-70
2022/08/03 03:04:43;;;;;;;18.30;16.92;;;14.70;99.90;;;;;;5008994;28;20420;-70
2022/08/03 03:07:32;;;;;;;19.02;17.45;;;14.70;99.90;;;;;;5000588;28;20442;-70
2022/08/03 03:10:23;;;;;;;19.38;17.63;;;14.70;99.90;;;;;;5016275;28;20037;-70
2022/08/03 03:12:54;;;;;;;19.33;17.85;;;14.70;99.90;;;;;;5027023;28;20144;-72
2022/08/03 03:15:23;;;;;;;19.58;18.08;;;14.70;99.90;;;;;;5025650;28;20045;-71
2022/08/03 03:17:52;;;;;;;19.23;17.73;;;14.80;99.90;;;;;;5033435;28;20110;-71
2022/08/03 03:20:20;;;;;;;17.83;16.40;;;14.60;99.90;;;;;;5012594;28;20048;-71
2022/08/03 03:22:58;;;;;;;17.75;16.30;;;14.60;99.90;;;;;;5034437;28;20430;-71
2022/08/03 03:25:32;;;;;;;19.13;17.55;;;14.70;99.90;;;;;;5024008;28;20063;-71
2022/08/03 03:28:00;;;;;;;18.80;16.95;;;14.60;99.90;;;;;;5019356;28;20063;-71
2022/08/03 03:30:29;;;;;;;17.42;15.95;;;14.60;99.90;;;;;;5006862;28;20051;-71
2022/08/03 03:32:57;;;;;;;17.80;16.23;;;14.50;99.90;;;;;;5026255;28;20061;-71
2022/08/03 03:35:26;;;;;;;17.40;16.00;;;14.50;99.90;;;;;;5006272;28;20045;-71
2022/08/03 03:37:53;;;;;;;18.05;16.58;;;14.50;99.90;;;;;;5007096;28;20068;-70
2022/08/03 03:40:21;;;;;;;18.33;16.90;;;14.40;99.90;;;;;;5017432;28;20037;-70
2022/08/03 03:42:49;;;;;;;18.35;16.58;;;14.40;99.90;;;;;;5019083;28;20029;-71
2022/08/03 03:45:17;;;;;;;18.63;17.13;;;14.50;99.90;;;;;;5016758;28;20405;-72
2022/08/03 03:47:44;;;;;;;18.88;17.15;;;14.50;99.90;;;;;;5013849;28;20308;-71
2022/08/03 03:50:11;;;;;;;18.02;16.35;;;14.60;99.90;;;;;;5007410;28;20056;-70
2022/08/03 03:52:38;;;;;;;18.30;16.73;;;14.70;99.90;;;;;;5023170;28;20057;-70
2022/08/03 03:55:05;;;;;;;17.45;16.05;;;14.70;99.90;;;;;;5015911;28;20045;-71
2022/08/03 03:57:33;;;;;;;18.20;16.65;;;14.60;99.90;;;;;;5032789;28;20281;-72
2022/08/03 04:00:01;;;;;;;17.83;16.42;;;14.50;99.90;;;;;;5034879;28;20267;-71
2022/08/03 04:02:30;;;;;;;19.08;17.25;;;14.50;99.90;;;;;;5027675;28;20166;-71
2022/08/03 04:10:57;;;;;;;19.10;17.40;;;14.50;99.90;;;;;;5027820;28;20872;-71
2022/08/03 04:13:29;;;;;;;18.60;17.00;;;14.60;99.90;;;;;;5015048;28;20117;-71
2022/08/03 04:15:58;;;;;;;17.90;16.45;;;14.80;99.90;;;;;;5030965;28;20048;-71
2022/08/03 04:18:29;;;;;;;17.60;16.10;;;14.80;99.90;;;;;;5028724;28;20514;-70
2022/08/03 04:21:00;;;;;;;18.02;16.38;;;14.70;99.90;;;;;;5015039;28;20037;-71
2022/08/03 04:23:31;;;;;;;17.50;15.85;;;14.70;99.90;;;;;;5007429;28;20057;-70
2022/08/03 04:25:59;;;;;;;18.05;16.60;;;14.80;99.90;;;;;;5004460;28;20501;-72
2022/08/03 04:28:27;;;;;;;17.00;15.43;;;14.80;99.90;;;;;;5028380;28;20079;-71
2022/08/03 04:31:00;;;;;;;17.92;16.60;;;14.80;99.90;;;;;;5026900;28;20201;-72
2022/08/03 04:33:30;;;;;;;17.25;15.95;;;14.70;99.90;;;;;;5019613;28;20049;-72
2022/08/03 04:36:00;;;;;;;17.55;16.08;;;14.80;99.90;;;;;;5025906;28;20464;-70
2022/08/03 04:38:34;;;;;;;17.48;16.00;;;14.90;99.90;;;;;;5010162;28;20053;-71
2022/08/03 04:41:01;;;;;;;16.92;15.52;;;14.90;99.90;;;;;;5012751;28;20044;-70
2022/08/03 04:43:31;;;;;;;17.58;16.15;;;15.00;99.90;;;;;;5006764;28;20516;-71
2022/08/03 04:45:59;;;;;;;18.00;16.50;;;15.00;99.90;;;;;;5015918;28;20053;-71
2022/08/03 04:48:27;;;;;;;18.52;16.92;;;15.00;99.90;;;;;;5007393;28;20045;-71
2022/08/03 04:50:54;;;;;;;18.50;17.10;;;15.10;99.90;;;;;;5007130;28;20052;-72
2022/08/03 04:53:21;;;;;;;17.50;16.10;;;15.10;99.90;;;;;;5005278;28;20428;-71
2022/08/03 04:55:48;;;;;;;18.17;16.73;;;15.10;99.90;;;;;;5035289;28;20052;-71
2022/08/03 04:58:15;;;;;;;17.23;15.65;;;15.20;99.90;;;;;;5012404;28;20044;-71
2022/08/03 05:00:44;;;;;;;16.60;15.40;;;15.20;99.90;;;;;;5029667;28;20049;-71
2022/08/03 05:03:10;;;;;;;19.80;18.00;;;15.30;99.90;;;;;;5003672;28;20045;-70
2022/08/03 05:05:52;;;;;;;18.17;16.50;;;15.20;99.90;;;;;;5014541;28;20041;-72
2022/08/03 05:08:27;;;;;;;17.20;15.80;;;15.30;99.90;;;;;;5028035;28;20048;-71
2022/08/03 05:10:55;;;;;;;17.23;15.77;;;15.40;99.90;;;;;;5019797;28;20155;-71
2022/08/03 05:13:25;;;;;;;18.17;16.48;;;15.40;99.90;;;;;;5001363;28;20049;-71
2022/08/03 05:15:52;;;;;;;16.88;15.35;;;15.50;99.90;;;;;;5030980;28;20455;-71
2022/08/03 05:18:19;;;;;;;17.38;16.05;;;15.70;99.90;;;;;;5000082;28;20052;-71
2022/08/03 05:20:46;;;;;;;16.80;15.60;;;15.90;99.90;;;;;;5002978;28;20051;-71
2022/08/03 05:23:13;;;;;;;18.02;16.52;;;16.20;99.90;;;;;;5017781;28;20540;-71
2022/08/03 05:25:39;;;;;;;18.15;16.85;;;16.50;99.90;;;;;;5024300;28;21440;-71
2022/08/03 05:28:15;;;;;;;19.05;17.27;;;16.70;99.90;;;;;;5027053;28;20040;-71
2022/08/03 05:30:42;;;;;;;17.48;16.33;;;17.00;99.90;;;;;;5017983;28;20238;-72
2022/08/03 05:33:10;;;;;;;18.75;17.05;;;17.00;99.90;;;;;;5020809;28;20113;-71
2022/08/03 05:35:38;;;;;;;17.63;16.35;;;17.00;99.90;;;;;;5023726;28;20906;-70
2022/08/03 05:38:25;;;;;;;18.55;16.98;;;17.00;99.90;;;;;;5026624;28;20048;-70
2022/08/03 05:40:55;;;;;;;18.35;16.92;;;17.10;99.90;;;;;;5013471;28;20051;-71
2022/08/03 05:43:43;;;;;;;19.17;17.70;;;17.20;99.90;;;;;;5005299;28;20044;-71
2022/08/03 05:46:10;;;;;;;17.48;16.38;;;17.30;99.90;;;;;;5006269;28;20178;-71
2022/08/03 05:48:40;;;;;;;17.60;16.27;;;17.50;99.90;;;;;;5021345;28;20527;-71
2022/08/03 05:51:09;;;;;;;17.50;16.30;;;17.70;99.90;;;;;;5004309;28;20041;-70
2022/08/03 05:53:39;;;;;;;17.73;16.33;;;17.80;99.90;;;;;;5010502;28;20666;-71
2022/08/03 05:56:06;;;;;;;17.23;16.00;;;18.00;99.90;;;;;;5025526;28;20048;-70
2022/08/03 05:58:44;;;;;;;;;;;18.20;99.90;;;;;;5010758;28;20053;-71
2022/08/03 06:01:11;;;;;;;15.50;14.40;;;18.40;99.90;;;;;;5025233;28;20395;-72
2022/08/03 06:03:39;;;;;;;15.05;13.95;;;18.50;99.90;;;;;;4999060;28;20533;-71
2022/08/03 06:06:06;;;;;;;15.20;14.00;;;18.60;99.90;;;;;;5022255;28;20045;-71
2022/08/03 06:08:33;;;;;;;14.93;13.85;;;18.80;99.90;;;;;;5002433;28;20045;-72
2022/08/03 06:11:00;;;;;;;15.77;14.68;;;18.90;99.90;;;;;;5012113;28;20040;-71
2022/08/03 06:13:27;;;;;;;17.17;16.08;;;19.10;99.90;;;;;;5020309;28;20044;-71
2022/08/03 06:15:54;;;;;;;19.23;17.98;;;19.50;99.90;;;;;;5027791;28;20041;-72
2022/08/03 06:18:22;;;;;;;19.45;18.17;;;19.90;99.90;;;;;;5016052;28;20040;-71
2022/08/03 06:20:50;;;;;;;19.45;18.35;;;20.40;99.90;;;;;;5001243;28;20829;-71
2022/08/03 06:23:18;;;;;;;19.40;18.27;;;21.00;99.90;;;;;;5002515;28;20041;-71
2022/08/03 06:25:45;;;;;;;20.45;19.20;;;21.60;99.90;;;;;;5012727;28;20706;-72
2022/08/03 06:28:13;;;;;;;20.38;19.08;;;22.00;99.90;;;;;;4999143;28;20044;-72
2022/08/03 06:31:00;;;;;;;20.25;18.85;;;22.50;99.90;;;;;;4994823;28;20044;-73
2022/08/03 06:33:28;;;;;;;19.52;18.42;;;23.00;99.90;;;;;;5003398;28;20566;-72
2022/08/03 06:36:14;;;;;;;19.95;18.55;;;23.40;99.90;;;;;;4999403;28;20040;-72
2022/08/03 06:38:41;;;;;;;20.02;18.92;;;23.90;99.90;;;;;;5024754;28;20055;-72
2022/08/03 06:41:08;;;;;;;19.67;18.58;;;24.30;99.90;;;;;;5013032;28;20543;-72
2022/08/03 06:43:36;;;;;;;20.15;19.00;;;24.60;99.90;;;;;;5006644;28;20063;-72
2022/08/03 06:46:04;;;;;;;20.95;19.15;;;24.90;99.90;;;;;;5033781;28;20428;-72
2022/08/03 06:48:31;;;;;;;21.08;19.63;;;25.10;99.90;;;;;;4993154;28;20056;-72
2022/08/03 06:50:58;;;;;;;20.70;19.48;;;25.30;99.90;;;;;;5034492;28;20033;-73
2022/08/03 06:53:25;;;;;;;20.75;19.63;;;25.70;99.90;;;;;;5011735;28;20293;-73
2022/08/03 06:55:52;;;;;;;20.48;19.27;;;26.10;99.90;;;;;;5023292;28;20040;-73
2022/08/03 06:58:21;;;;;;;20.30;19.20;;;26.40;99.90;;;;;;4998209;28;20033;-73
2022/08/03 07:00:49;;;;;;;21.13;19.83;;;26.60;99.90;;;;;;5036989;28;20749;-73
2022/08/03 07:03:16;;;;;;;21.67;20.17;;;26.90;99.90;;;;;;5005889;28;20037;-73
2022/08/03 07:05:45;;;;;;;21.45;19.98;;;26.90;99.90;;;;;;5007251;28;20037;-73
2022/08/03 07:08:13;;;;;;;22.55;20.80;;;27.00;99.90;;;;;;5008399;28;20576;-73
2022/08/03 07:10:40;;;;;;;21.70;20.45;;;27.20;99.90;;;;;;5035336;28;20705;-73
2022/08/03 07:13:07;;;;;;;22.38;20.98;;;27.50;99.90;;;;;;5029184;28;20634;-72
2022/08/03 07:15:34;;;;;;;23.02;21.48;;;27.70;99.90;;;;;;5030820;28;20055;-72
2022/08/03 07:18:20;;;;;;;22.55;21.25;;;27.90;99.90;;;;;;5023072;28;20044;-72
2022/08/03 07:20:57;;;;;;;23.60;22.20;;;27.40;99.90;;;;;;5011795;28;20048;-72
2022/08/03 07:23:24;;;;;;;23.88;22.30;;;27.70;99.90;;;;;;5001448;28;20486;-72
2022/08/03 07:25:51;;;;;;;23.80;22.30;;;28.10;99.90;;;;;;5019116;28;20493;-73
2022/08/03 07:28:19;;;;;;;23.88;22.33;;;28.80;99.90;;;;;;5010040;28;20037;-73
2022/08/03 07:30:46;;;;;;;24.10;22.50;;;28.90;99.90;;;;;;5006312;28;20041;-73
2022/08/03 07:33:14;;;;;;;24.55;22.95;;;29.00;99.90;;;;;;5028657;28;20469;-73
2022/08/03 07:35:41;;;;;;;24.75;22.88;;;29.30;99.90;;;;;;5006840;28;20296;-73
2022/08/03 07:38:08;;;;;;;25.25;23.42;;;29.30;99.90;;;;;;5027747;28;20269;-72
2022/08/03 07:40:35;;;;;;;25.42;23.80;;;29.40;99.90;;;;;;5061594;22;20060;-74
2022/08/03 07:43:02;;;;;;;26.25;24.52;;;29.50;99.90;;;;;;5055412;28;20583;-74
2022/08/03 07:45:31;;;;;;;26.17;24.40;;;29.50;99.90;;;;;;5052995;28;20044;-74
2022/08/03 07:47:58;;;;;;;27.50;25.70;;;29.30;99.90;;;;;;5056160;28;20108;-74
2022/08/03 07:50:25;;;;;;;25.80;24.25;;;29.20;99.90;;;;;;5018505;28;20049;-74
2022/08/03 07:52:54;;;;;;;26.48;24.98;;;28.80;99.90;;;;;;5049933;28;20033;-74
2022/08/03 07:55:22;;;;;;;25.52;23.83;;;28.70;99.90;;;;;;5033032;28;20044;-75
2022/08/03 07:58:08;;;;;;;25.67;24.27;;;29.00;99.90;;;;;;5056790;28;20332;-74
2022/08/03 08:00:35;;;;;;;25.83;23.95;;;29.10;99.90;;;;;;5034390;28;20106;-74
2022/08/03 08:03:02;;;;;;;26.20;24.55;;;29.20;99.90;;;;;;5054596;28;20041;-74
2022/08/03 08:05:29;;;;;;;26.20;24.60;;;29.30;99.90;;;;;;5051383;28;20094;-75
2022/08/03 08:07:55;;;;;;;25.65;24.25;;;29.30;99.90;;;;;;5036400;28;20113;-74
2022/08/03 08:10:22;;;;;;;26.55;24.88;;;29.60;99.90;;;;;;5051908;28;20080;-74
2022/08/03 08:12:49;;;;;;;26.02;24.35;;;29.60;99.90;;;;;;5054214;28;20343;-75
2022/08/03 08:15:16;;;;;;;25.75;24.30;;;29.80;99.90;;;;;;5052865;28;20479;-74
2022/08/03 08:17:51;;;;;;;26.67;24.98;;;29.90;99.90;;;;;;5036672;28;20106;-74
2022/08/03 08:20:27;;;;;;;25.60;24.13;;;30.00;99.90;;;;;;5050761;28;20064;-75
2022/08/03 08:22:59;;;;;;;25.52;23.95;;;30.10;99.90;;;;;;5033597;28;20080;-73
2022/08/03 08:25:27;;;;;;;25.30;23.65;;;30.40;99.90;;;;;;5035763;28;20052;-73
2022/08/03 08:27:54;;;;;;;25.73;24.23;;;30.70;99.90;;;;;;5037148;28;20036;-73
2022/08/03 08:30:41;;;;;;;25.23;23.55;;;30.60;99.90;;;;;;5032153;28;20048;-73
2022/08/03 08:33:08;;;;;;;26.08;24.55;;;30.70;99.90;;;;;;5055273;28;20079;-73
2022/08/03 08:35:50;;;;;;;25.35;23.80;;;30.50;99.90;;;;;;5048868;28;20615;-73
2022/08/03 08:38:17;;;;;;;25.92;24.45;;;30.50;99.90;;;;;;5035416;28;20139;-73
2022/08/03 08:40:44;;;;;;;25.02;23.67;;;30.00;99.90;;;;;;5050961;28;20121;-73
2022/08/03 08:43:10;;;;;;;26.83;25.23;;;30.00;99.90;;;;;;5037241;28;20293;-73
2022/08/03 08:45:39;;;;;;;25.45;23.90;;;30.30;99.90;;;;;;5052857;28;20048;-73
2022/08/03 08:48:07;;;;;;;25.25;23.75;;;30.40;99.90;;;;;;5034908;28;20045;-73
2022/08/03 08:50:37;;;;;;;26.75;25.15;;;30.30;99.90;;;;;;5051082;28;20888;-72
2022/08/03 08:53:06;;;;;;;26.65;24.80;;;30.10;99.90;;;;;;5052811;28;20457;-73
2022/08/03 08:55:37;;;;;;;27.40;25.42;;;30.20;99.90;;;;;;5033847;28;20579;-73
2022/08/03 08:58:27;;;;;;;27.20;25.70;;;30.60;99.90;;;;;;5052561;28;20433;-73
2022/08/03 09:00:54;;;;;;;26.92;25.38;;;30.70;99.90;;;;;;5035983;28;20131;-73
2022/08/03 09:03:22;;;;;;;27.35;25.95;;;30.70;99.90;;;;;;5029890;28;20045;-73
2022/08/03 09:05:57;;;;;;;;;;;30.70;99.90;;;;;;5036241;28;20072;-74
2022/08/03 09:08:24;;;;;;;27.45;25.90;;;30.80;99.90;;;;;;5048361;28;19970;-73
2022/08/03 09:10:51;;;;;;;27.83;26.23;;;31.10;99.90;;;;;;5034520;28;20056;-73
2022/08/03 09:13:18;;;;;;;27.50;26.00;;;31.20;99.90;;;;;;5051620;28;20132;-74
2022/08/03 09:15:45;;;;;;;27.17;25.67;;;31.10;99.90;;;;;;5035421;28;20036;-74
2022/08/03 09:18:30;;;;;;;28.23;26.63;;;30.70;99.90;;;;;;5049122;28;20422;-74
2022/08/03 09:21:34;;;;;;;27.50;26.10;;;30.70;99.90;;;;;;5053933;28;20457;-74
2022/08/03 09:24:02;;;;;;;28.92;27.17;;;30.50;99.90;;;;;;5048693;28;20502;-74
2022/08/03 09:26:36;;;;;;;27.95;26.35;;;30.10;99.90;;;;;;5050331;28;20131;-73
2022/08/03 09:29:07;;;;;;;28.35;26.73;;;30.20;99.90;;;;;;5036773;28;20457;-73
2022/08/03 09:31:45;;;;;;;28.80;27.02;;;30.40;99.90;;;;;;5043393;28;20094;-74
2022/08/03 09:34:15;;;;;;;27.48;25.92;;;30.50;99.90;;;;;;5053776;28;20044;-74
2022/08/03 09:36:49;;;;;;;28.48;26.95;;;30.80;99.90;;;;;;5053651;28;20055;-74
2022/08/03 09:39:21;;;;;;;28.60;27.00;;;30.80;99.90;;;;;;5050335;28;20048;-74
2022/08/03 09:42:17;;;;;;;28.00;26.40;;;30.90;99.90;;;;;;5035422;28;20043;-74
2022/08/03 09:44:50;;;;;;;28.13;26.58;;;31.20;99.90;;;;;;5051718;28;20055;-73
2022/08/03 09:47:29;;;;;;;28.10;26.38;;;31.20;99.90;;;;;;5049544;28;20160;-74
2022/08/03 09:50:01;;;;;;;28.85;27.15;;;31.30;99.90;;;;;;5046992;28;20040;-73
2022/08/03 09:52:37;;;;;;;28.60;26.90;;;31.20;99.90;;;;;;5048767;28;20504;-73
2022/08/03 09:55:23;;;;;;;29.25;27.60;;;31.10;99.90;;;;;;5049770;28;20044;-72
2022/08/03 09:58:11;;;;;;;29.55;27.75;;;31.40;99.90;;;;;;5051886;28;20036;-74
2022/08/03 10:00:55;;;;;;;29.58;27.92;;;31.50;99.90;;;;;;5049202;28;20044;-73
2022/08/03 10:03:23;;;;;;;29.25;27.50;;;31.80;99.90;;;;;;5048895;28;20056;-74
2022/08/03 10:05:50;;;;;;;29.90;27.98;;;31.70;99.90;;;;;;5052888;28;20119;-73
2022/08/03 10:08:24;;;;;;;29.80;28.15;;;31.50;99.90;;;;;;5049366;28;20102;-73
2022/08/03 10:10:57;;;;;;;27.30;25.70;;;31.60;99.90;;;;;;5034890;28;20080;-74
2022/08/03 10:13:24;;;;;;;30.42;28.63;;;31.70;99.90;;;;;;5040936;28;20043;-76
2022/08/03 10:15:51;;;;;;;28.33;26.73;;;31.70;99.90;;;;;;5028792;28;20317;-73
2022/08/03 10:18:38;;;;;;;28.05;26.55;;;31.80;99.90;;;;;;5029511;28;20040;-73
2022/08/03 10:21:09;;;;;;;28.23;26.42;;;32.10;99.90;;;;;;5048978;28;20064;-74
2022/08/03 10:23:39;;;;;;;29.10;27.25;;;32.00;99.90;;;;;;5046972;28;20060;-73
2022/08/03 10:26:07;;;;;;;28.80;27.10;;;32.00;99.90;;;;;;5051275;28;20397;-73
2022/08/03 10:28:36;;;;;;;28.85;27.25;;;32.20;99.90;;;;;;5049658;28;20090;-74
2022/08/03 10:31:11;;;;;;;28.45;26.65;;;32.20;99.90;;;;;;5031763;28;20068;-74
2022/08/03 10:33:42;;;;;;;28.40;26.67;;;32.00;99.90;;;;;;5048869;28;20037;-75
2022/08/03 10:36:19;;;;;;;28.35;26.75;;;32.00;99.90;;;;;;5047819;28;20051;-73
2022/08/03 10:38:51;;;;;;;27.35;25.55;;;31.80;99.90;;;;;;5028108;28;20098;-73
2022/08/03 10:41:25;;;;;;;28.45;26.60;;;32.00;99.90;;;;;;4992318;28;1090745;-73
2022/08/03 10:44:01;;;;;;;27.77;26.17;;;32.20;99.90;;;;;;5048072;28;20048;-74
2022/08/03 10:46:28;;;;;;;28.95;27.00;;;32.30;99.90;;;;;;5046448;28;20268;-74
2022/08/03 10:48:55;;;;;;;28.45;26.65;;;32.30;99.90;;;;;;5052463;28;20059;-74
2022/08/03 10:51:23;;;;;;;30.00;28.38;;;32.40;99.90;;;;;;5030231;28;21428;-76
2022/08/03 10:53:50;;;;;;;29.52;27.83;;;32.10;99.90;;;;;;5034624;28;20459;-73
2022/08/03 10:59:45;;;;;;;28.92;27.25;;;32.20;99.90;;;;;;5030761;28;20506;-74
2022/08/03 11:02:13;;;;;;;28.15;26.58;;;32.10;99.90;;;;;;5049899;28;20052;-74
2022/08/03 11:04:41;;;;;;;28.23;26.70;;;31.90;99.90;;;;;;5049510;28;20421;-75
2022/08/03 11:07:24;;;;;;;28.58;26.98;;;31.90;99.90;;;;;;5045772;28;20055;-74
2022/08/03 11:09:55;;;;;;;29.38;27.67;;;31.90;99.90;;;;;;5054635;28;20382;-75
2022/08/03 11:12:23;;;;;;;28.58;26.98;;;32.30;99.90;;;;;;5048853;28;20037;-75
2022/08/03 11:15:03;;;;;;;28.48;26.77;;;32.40;99.90;;;;;;5053591;28;20131;-75
2022/08/03 11:17:32;;;;;;;29.20;27.50;;;32.40;99.90;;;;;;5029005;28;20067;-75
2022/08/03 11:20:11;;;;;;;28.75;27.05;;;32.60;99.90;;;;;;5051664;28;20045;-76
2022/08/03 11:22:49;;;;;;;29.27;27.58;;;32.80;99.90;;;;;;5048910;28;20070;-75
2022/08/03 11:25:16;;;;;;;29.85;28.15;;;32.70;99.90;;;;;;5033610;28;20055;-75
2022/08/03 11:28:26;;;;;;;29.70;28.00;;;32.50;99.90;;;;;;5035074;28;20128;-75
2022/08/03 11:30:53;;;;;;;29.65;27.80;;;32.00;99.90;;;;;;5030496;28;20048;-75
2022/08/03 11:33:30;;;;;;;28.00;26.40;;;32.00;99.90;;;;;;5034920;28;20263;-75
2022/08/03 11:35:59;;;;;;;29.23;27.63;;;32.20;99.90;;;;;;5050914;28;20348;-75
2022/08/03 11:38:25;;;;;;;29.23;27.63;;;32.40;99.90;;;;;;5032270;28;20125;-75
2022/08/03 11:40:53;;;;;;;29.27;27.67;;;32.30;99.90;;;;;;5036210;28;20060;-75
2022/08/03 11:43:29;;;;;;;29.38;27.67;;;32.50;99.90;;;;;;5053671;28;20502;-76
2022/08/03 11:46:20;;;;;;;30.23;28.52;;;32.30;99.90;;;;;;5037622;28;20120;-76
2022/08/03 11:49:08;;;;;;;29.65;27.80;;;32.20;99.40;;;;;;5052429;28;20052;-76
2022/08/03 11:51:38;;;;;;;28.55;26.92;;;32.20;99.90;;;;;;5034571;28;21087;-75
2022/08/03 11:54:06;;;;;;;28.25;26.65;;;32.30;99.50;;;;;;5055073;28;20070;-76
2022/08/03 11:56:44;;;;;;;29.40;27.60;;;32.50;99.90;;;;;;5051203;28;20040;-75
2022/08/03 11:59:10;;;;;;;28.73;27.13;;;32.60;99.90;;;;;;5055685;28;20032;-76
2022/08/03 12:01:47;;;;;;;29.33;27.73;;;32.70;99.90;;;;;;5030879;28;20219;-75
2022/08/03 12:04:15;;;;;;;29.33;27.52;;;32.80;99.60;;;;;;5056255;28;20044;-76
2022/08/03 12:07:00;;;;;;;28.42;26.85;;;32.50;98.80;;;;;;5034008;28;20365;-76
2022/08/03 12:09:27;;;;;;;28.60;27.00;;;32.40;99.80;;;;;;5049984;28;20128;-75
2022/08/03 12:11:54;;;;;;;29.52;27.83;;;32.30;99.70;;;;;;5017028;28;20048;-75
2022/08/03 12:14:28;;;;;;;28.58;26.85;;;32.30;99.90;;;;;;5032806;28;20414;-76
2022/08/03 12:17:15;;;;;;;29.15;27.45;;;32.70;99.90;;;;;;5038614;28;20067;-75
2022/08/03 12:19:43;;;;;;;29.95;28.10;;;32.90;99.20;;;;;;5033957;28;21134;-75
2022/08/03 12:22:10;;;;;;;28.67;27.08;;;32.80;98.30;;;;;;5019405;28;20068;-75
2022/08/03 12:24:41;;;;;;;29.25;27.55;;;32.80;99.90;;;;;;5033561;28;21352;-75
2022/08/03 12:27:08;;;;;;;29.10;27.50;;;32.90;99.80;;;;;;5035498;28;20032;-75
2022/08/03 12:29:35;;;;;;;28.80;27.10;;;33.10;98.20;;;;;;5050742;28;20074;-75
2022/08/03 12:32:02;;;;;;;28.77;26.92;;;33.10;99.90;;;;;;5053393;28;20082;-76
2022/08/03 12:34:45;;;;;;;30.35;28.63;;;33.10;99.20;;;;;;5032134;28;20414;-75
2022/08/03 12:37:17;;;;;;;28.90;27.27;;;33.00;98.20;;;;;;5051428;28;20037;-76
2022/08/03 12:39:53;;;;;;;30.10;28.40;;;33.20;99.40;;;;;;5050087;28;20135;-75
2022/08/03 12:42:33;;;;;;;29.42;27.60;;;33.10;99.20;;;;;;5050816;28;20044;-75
2022/08/03 12:45:21;;;;;;;29.73;28.02;;;32.50;99.90;;;;;;5037475;28;20487;-75
2022/08/03 12:47:50;;;;;;;30.48;28.45;;;32.30;99.60;;;;;;5052944;28;20127;-75
2022/08/03 12:50:30;;;;;;;29.23;27.48;;;32.50;99.40;;;;;;5047863;28;20067;-75
2022/08/03 12:53:03;;;;;;;29.52;27.85;;;32.80;99.70;;;;;;5032431;28;20064;-75
2022/08/03 12:55:35;;;;;;;29.77;28.08;;;33.00;99.50;;;;;;5049483;28;20059;-74
2022/08/03 12:58:32;;;;;;;30.13;28.42;;;33.10;99.50;;;;;;5051842;28;20076;-74
2022/08/03 13:01:02;;;;;;;28.45;26.92;;;33.00;99.10;;;;;;5031251;28;20423;-74